Time;durP1;ratioP1;P1;durP2;ratioP2;P2;SDS_P1;SDS_P2;PMS_P1;PMS_P2;Temp;Humidity;BMP_temperature;BMP_pressure;BME280_temperature;BME280_humidity;BME280_pressure;Samples;Min_cycle;Max_cycle;Signal;HPM_P1;HPM_P2
2023/05/18 00:01:44;;;;;;;5.77;1.80;;;;;;;8.24;61.07;101972.97;5026962;28;20430;-76
2023/05/18 00:04:10;;;;;;;2.33;1.53;;;;;;;8.21;60.88;101968.28;5041385;28;20243;-76
2023/05/18 00:06:37;;;;;;;6.90;1.90;;;;;;;8.19;62.09;101970.34;5043074;28;20195;-76
2023/05/18 00:09:04;;;;;;;3.83;2.10;;;;;;;8.14;62.21;101972.25;5044873;28;20199;-76
2023/05/18 00:11:31;;;;;;;6.30;1.83;;;;;;;8.11;61.67;101965.69;5028072;28;20224;-76
2023/05/18 00:13:59;;;;;;;4.73;1.93;;;;;;;8.09;60.70;101978.34;5027075;28;20241;-76
2023/05/18 00:16:25;;;;;;;4.70;2.00;;;;;;;8.07;61.09;101977.06;5028887;28;20203;-76
2023/05/18 00:18:53;;;;;;;5.87;2.00;;;;;;;8.02;60.29;101983.13;5025350;28;20309;-76
2023/05/18 00:21:21;;;;;;;3.73;1.93;;;;;;;8.01;62.65;101984.19;5026869;28;20300;-76
2023/05/18 00:23:49;;;;;;;7.63;1.97;;;;;;;7.97;61.97;101983.16;5025216;28;20278;-75
2023/05/18 00:26:15;;;;;;;5.53;1.80;;;;;;;7.94;63.08;101978.44;5030338;28;20218;-76
2023/05/18 00:28:42;;;;;;;3.27;1.70;;;;;;;7.92;63.22;101983.19;5027365;28;20199;-75
2023/05/18 00:31:12;;;;;;;3.87;1.70;;;;;;;7.88;61.85;101986.66;5027853;28;20261;-76
2023/05/18 00:33:44;;;;;;;4.40;1.60;;;;;;;7.85;61.00;101981.91;5046808;28;20187;-76
2023/05/18 00:36:11;;;;;;;8.33;1.87;;;;;;;7.81;62.05;101984.31;5026620;28;20223;-76
2023/05/18 00:38:38;;;;;;;3.67;1.77;;;;;;;7.78;60.47;101984.88;5024841;28;20254;-75
2023/05/18 00:41:09;;;;;;;4.83;1.70;;;;;;;7.76;62.76;101983.56;5027239;28;20231;-76
2023/05/18 00:43:35;;;;;;;6.87;1.70;;;;;;;7.73;61.76;101984.91;5026405;28;20203;-75
2023/05/18 00:46:02;;;;;;;3.37;1.63;;;;;;;7.69;61.83;101986.50;5028403;28;20206;-76
2023/05/18 00:48:30;;;;;;;9.80;2.17;;;;;;;7.66;60.26;101984.41;5025495;28;20226;-76
2023/05/18 00:50:56;;;;;;;8.17;2.20;;;;;;;7.62;62.13;101991.25;5021793;28;20837;-75
2023/05/18 00:53:23;;;;;;;7.90;1.77;;;;;;;7.59;61.95;101997.06;5038305;28;20201;-76
2023/05/18 00:55:49;;;;;;;3.13;1.40;;;;;;;7.57;62.80;101999.16;5044439;28;20207;-77
2023/05/18 00:58:16;;;;;;;4.10;1.40;;;;;;;7.54;63.00;101994.47;5047244;28;20195;-76
2023/05/18 01:00:46;;;;;;;6.33;1.80;;;;;;;7.52;64.16;102008.94;5024428;28;20237;-76
2023/05/18 01:03:14;;;;;;;4.90;1.70;;;;;;;7.48;63.56;102006.06;5027697;28;20206;-75
2023/05/18 01:05:42;;;;;;;4.07;1.83;;;;;;;7.45;64.15;102005.81;5040507;28;20248;-76
2023/05/18 01:08:09;;;;;;;7.27;2.33;;;;;;;7.43;65.39;102003.44;5027562;28;20191;-76
2023/05/18 01:10:40;;;;;;;4.90;1.90;;;;;;;7.41;68.05;102002.91;5043432;28;20215;-76
2023/05/18 01:13:15;;;;;;;4.20;1.77;;;;;;;7.38;68.66;102005.31;5029293;28;20199;-76
2023/05/18 01:15:46;;;;;;;2.80;1.70;;;;;;;7.34;69.13;102001.63;5026362;28;20207;-76
2023/05/18 01:18:20;;;;;;;5.23;1.60;;;;;;;7.30;69.14;102013.75;5042244;28;20203;-75
2023/05/18 01:20:49;;;;;;;3.87;1.87;;;;;;;7.23;69.38;102013.22;5043976;28;20237;-76
2023/05/18 01:23:52;;;;;;;4.30;1.90;;;;;;;7.16;70.33;102010.91;5041302;28;20195;-76
2023/05/18 01:26:28;;;;;;;3.53;1.60;;;;;;;7.12;70.55;102009.88;5024634;28;20252;-76
2023/05/18 01:28:56;;;;;;;9.73;2.00;;;;;;;7.04;70.96;102010.41;5044143;28;20617;-77
2023/05/18 01:31:23;;;;;;;3.53;1.70;;;;;;;6.99;71.83;102013.03;5021958;28;20280;-75
2023/05/18 01:33:49;;;;;;;3.33;1.67;;;;;;;6.92;71.66;102020.44;5021256;28;20218;-76
2023/05/18 01:36:16;;;;;;;3.83;1.83;;;;;;;6.85;72.36;102019.91;5021523;28;20225;-76
2023/05/18 01:38:44;;;;;;;4.77;1.70;;;;;;;6.79;72.35;102023.59;5027304;28;20636;-76
2023/05/18 01:41:20;;;;;;;2.83;1.60;;;;;;;6.72;72.28;102030.94;5024573;28;20321;-76
2023/05/18 01:43:53;;;;;;;10.33;2.10;;;;;;;6.65;72.20;102025.19;5027356;28;20233;-75
2023/05/18 01:46:32;;;;;;;5.17;1.67;;;;;;;6.57;72.56;102030.19;5044206;28;20263;-76
2023/05/18 01:49:05;;;;;;;5.87;1.73;;;;;;;6.51;72.87;102018.91;5027488;28;20250;-75
2023/05/18 01:51:39;;;;;;;8.97;2.00;;;;;;;6.45;73.33;102016.53;5028355;28;20219;-76
2023/05/18 01:54:08;;;;;;;3.17;1.50;;;;;;;6.38;73.24;102019.41;5028137;28;20285;-76
2023/05/18 01:56:38;;;;;;;5.53;1.80;;;;;;;6.34;74.51;102020.19;5026759;28;20206;-76
2023/05/18 01:59:07;;;;;;;4.53;2.13;;;;;;;6.28;74.55;102023.88;5028166;28;20231;-75
2023/05/18 02:01:34;;;;;;;8.47;1.80;;;;;;;6.21;74.59;102024.13;5022828;28;20255;-76
2023/05/18 02:04:00;;;;;;;4.43;1.70;;;;;;;6.15;74.60;102019.94;5028885;28;20346;-75
2023/05/18 02:06:27;;;;;;;3.43;2.00;;;;;;;6.08;74.21;102029.09;5025732;28;20314;-76
2023/05/18 02:08:54;;;;;;;5.20;2.20;;;;;;;6.02;75.00;102027.53;5026818;28;20203;-76
2023/05/18 02:11:20;;;;;;;4.43;1.80;;;;;;;5.97;75.36;102030.94;5028523;28;20277;-76
2023/05/18 02:13:47;;;;;;;3.13;2.00;;;;;;;5.92;75.60;102027.50;5025481;28;20667;-76
2023/05/18 02:16:15;;;;;;;4.50;2.00;;;;;;;5.84;75.64;102033.22;5022877;28;20284;-76
2023/05/18 02:18:43;;;;;;;4.83;1.87;;;;;;;5.80;76.33;102035.59;5028541;28;20191;-75
2023/05/18 02:21:10;;;;;;;6.30;2.20;;;;;;;5.76;77.16;102031.88;5036629;28;20255;-76
2023/05/18 02:23:36;;;;;;;3.50;2.00;;;;;;;5.70;76.89;102040.00;5030399;28;20295;-76
2023/05/18 02:26:03;;;;;;;6.27;2.10;;;;;;;5.64;77.15;102033.16;5032876;28;20560;-76
2023/05/18 02:28:30;;;;;;;3.97;2.10;;;;;;;5.59;77.52;102031.28;5033138;28;20207;-76
2023/05/18 02:31:04;;;;;;;5.50;2.03;;;;;;;5.55;77.83;102038.09;5031219;28;20222;-76
2023/05/18 02:33:38;;;;;;;4.37;2.00;;;;;;;5.49;77.45;102033.09;5031031;28;20249;-76
2023/05/18 02:36:08;;;;;;;4.27;1.80;;;;;;;5.42;77.05;102035.16;5030684;28;20229;-75
2023/05/18 02:38:36;;;;;;;5.37;1.90;;;;;;;5.37;77.35;102038.53;5049303;28;20191;-76
2023/05/18 02:41:03;;;;;;;5.33;1.87;;;;;;;5.36;78.46;102036.19;5031153;28;20223;-75
2023/05/18 02:43:29;;;;;;;7.90;2.20;;;;;;;5.28;78.20;102034.06;5042447;28;20191;-75
2023/05/18 02:45:56;;;;;;;5.20;1.77;;;;;;;5.24;78.27;102040.84;5030616;28;20235;-76
2023/05/18 02:48:23;;;;;;;6.03;2.20;;;;;;;5.19;78.31;102035.56;5031861;28;20206;-75
2023/05/18 02:50:51;;;;;;;4.93;1.90;;;;;;;5.17;78.73;102046.28;5047437;28;20219;-76
2023/05/18 02:53:18;;;;;;;4.50;2.10;;;;;;;5.12;78.56;102054.13;5029471;28;20257;-76
2023/05/18 02:55:45;;;;;;;3.33;2.00;;;;;;;5.09;79.36;102046.00;5026776;28;20251;-76
2023/05/18 02:58:26;;;;;;;6.00;1.80;;;;;;;5.04;78.70;102059.84;5030924;28;20734;-76
2023/05/18 03:01:02;;;;;;;4.13;2.00;;;;;;;5.03;79.48;102065.34;5047323;28;20218;-76
2023/05/18 03:03:34;;;;;;;4.10;2.10;;;;;;;4.93;78.54;102062.66;5024614;28;20282;-76
2023/05/18 03:06:02;;;;;;;4.40;1.57;;;;;;;4.90;78.70;102066.56;5028329;28;20203;-76
2023/05/18 03:08:30;;;;;;;5.80;2.13;;;;;;;4.84;78.82;102064.94;5027192;28;20206;-76
2023/05/18 03:10:57;;;;;;;5.23;1.97;;;;;;;4.83;79.50;102073.81;5031767;28;20771;-76
2023/05/18 03:13:24;;;;;;;7.03;1.93;;;;;;;4.79;79.82;102072.75;5045396;28;20211;-76
2023/05/18 03:15:50;;;;;;;4.60;1.97;;;;;;;4.75;79.47;102076.91;5031470;28;20223;-76
2023/05/18 03:18:17;;;;;;;7.00;1.90;;;;;;;4.73;79.75;102075.56;5043999;28;20547;-76
2023/05/18 03:20:44;;;;;;;6.53;2.27;;;;;;;4.71;80.31;102080.28;5049142;28;20211;-76
2023/05/18 03:23:13;;;;;;;8.00;2.27;;;;;;;4.67;80.42;102076.59;5030186;28;20203;-75
2023/05/18 03:25:43;;;;;;;5.20;2.00;;;;;;;4.66;80.36;102080.25;5028863;28;20204;-76
2023/05/18 03:28:10;;;;;;;5.77;2.10;;;;;;;4.62;80.25;102081.78;5029672;28;20206;-76
2023/05/18 03:30:36;;;;;;;5.10;2.20;;;;;;;4.59;80.09;102085.69;5046226;28;20339;-76
2023/05/18 03:33:05;;;;;;;6.43;2.80;;;;;;;4.58;80.31;102085.91;5042084;28;20211;-76
2023/05/18 03:35:32;;;;;;;5.10;1.83;;;;;;;4.58;80.37;102086.72;5030110;28;20200;-75
2023/05/18 03:37:59;;;;;;;5.30;2.30;;;;;;;4.57;80.83;102092.97;5030851;28;20604;-76
2023/05/18 03:40:28;;;;;;;5.00;2.00;;;;;;;4.58;81.20;102097.19;5048946;28;20229;-75
2023/05/18 03:42:54;;;;;;;8.30;2.60;;;;;;;4.59;81.07;102093.53;5025372;28;20261;-76
2023/05/18 03:45:21;;;;;;;4.73;1.93;;;;;;;4.60;81.11;102097.72;5025474;28;20195;-75
2023/05/18 03:47:48;;;;;;;5.83;2.07;;;;;;;4.61;80.99;102095.91;5028768;28;20195;-76
2023/05/18 03:50:14;;;;;;;6.43;2.40;;;;;;;4.60;80.55;102107.38;5028452;28;20222;-76
2023/05/18 03:52:43;;;;;;;5.57;2.00;;;;;;;4.62;81.44;102106.09;5049387;28;20226;-75
2023/05/18 03:55:11;;;;;;;5.87;2.40;;;;;;;4.63;81.52;102102.47;5045845;28;20211;-75
2023/05/18 03:57:40;;;;;;;7.27;2.00;;;;;;;4.67;81.50;102103.50;5029892;28;20669;-75
2023/05/18 04:00:11;;;;;;;3.97;1.93;;;;;;;4.71;81.62;102103.84;5030203;28;20233;-75
2023/05/18 04:02:43;;;;;;;6.53;2.33;;;;;;;4.78;82.36;102110.44;5047821;28;20195;-76
2023/05/18 04:05:10;;;;;;;5.23;2.30;;;;;;;4.84;82.20;102109.44;5040360;28;20685;-75
2023/05/18 04:07:42;;;;;;;5.97;2.10;;;;;;;4.92;82.11;102102.94;5048529;28;20207;-76
2023/05/18 04:10:10;;;;;;;7.17;2.40;;;;;;;5.01;81.96;102112.69;5041229;28;20310;-75
2023/05/18 04:12:37;;;;;;;4.30;2.30;;;;;;;5.09;81.95;102114.88;5048018;28;20188;-76
2023/05/18 04:15:06;;;;;;;5.27;2.10;;;;;;;5.19;81.45;102114.13;5025287;28;20685;-75
2023/05/18 04:17:34;;;;;;;6.33;2.23;;;;;;;5.29;81.65;102114.19;5044967;28;20234;-76
2023/05/18 04:20:10;;;;;;;4.30;2.10;;;;;;;5.42;81.62;102116.34;5045792;28;20199;-76
2023/05/18 04:22:42;;;;;;;5.33;2.40;;;;;;;5.49;80.27;102122.19;5025381;28;20193;-76
2023/05/18 04:25:10;;;;;;;5.97;2.37;;;;;;;5.58;78.90;102118.00;5043583;28;20278;-76
2023/05/18 04:27:37;;;;;;;5.70;2.17;;;;;;;5.69;78.09;102117.81;5047696;28;20191;-75
2023/05/18 04:30:09;;;;;;;9.23;2.60;;;;;;;5.79;77.19;102117.84;5025144;28;20211;-76
2023/05/18 04:32:41;;;;;;;5.33;2.30;;;;;;;5.90;76.39;102116.88;5028471;28;20609;-76
2023/05/18 04:35:09;;;;;;;6.77;2.40;;;;;;;6.00;75.14;102122.16;5043938;28;20557;-76
2023/05/18 04:37:39;;;;;;;5.57;2.33;;;;;;;6.11;74.86;102123.75;5046850;28;20799;-76
2023/05/18 04:40:12;;;;;;;5.23;2.50;;;;;;;6.20;73.22;102118.81;5027467;28;20219;-76
2023/05/18 04:42:43;;;;;;;7.53;2.00;;;;;;;6.30;72.33;102114.38;5026604;28;20563;-75
2023/05/18 04:45:16;;;;;;;4.40;2.03;;;;;;;6.39;71.19;102123.31;5043712;28;20205;-76
2023/05/18 04:47:45;;;;;;;3.80;2.00;;;;;;;6.47;71.83;102122.03;5026313;28;20292;-75
2023/05/18 04:50:13;;;;;;;4.90;2.23;;;;;;;6.56;71.93;102120.44;5023425;28;20309;-76
2023/05/18 04:52:46;;;;;;;3.73;1.90;;;;;;;6.61;71.80;102123.88;5025399;28;20215;-76
2023/05/18 04:55:13;;;;;;;5.93;2.17;;;;;;;6.66;71.03;102128.31;5040104;28;20318;-76
2023/05/18 04:57:40;;;;;;;4.47;2.07;;;;;;;6.71;71.79;102133.59;5046272;28;20261;-75
2023/05/18 05:00:08;;;;;;;9.00;2.47;;;;;;;6.76;72.31;102134.38;5037312;28;20223;-76
2023/05/18 05:02:36;;;;;;;3.67;1.87;;;;;;;6.81;72.12;102139.63;5024220;28;20206;-75
2023/05/18 05:05:05;;;;;;;3.70;2.40;;;;;;;6.88;73.36;102145.41;5027028;28;20669;-76
2023/05/18 05:07:31;;;;;;;2.93;2.00;;;;;;;6.96;73.38;102141.47;5040137;28;20253;-75
2023/05/18 05:09:59;;;;;;;6.80;2.00;;;;;;;7.03;72.82;102142.78;5025967;28;20239;-75
2023/05/18 05:12:25;;;;;;;4.03;2.03;;;;;;;7.09;72.79;102146.19;5021450;28;20252;-75
2023/05/18 05:14:52;;;;;;;5.80;2.47;;;;;;;7.16;73.32;102144.88;5041461;28;20286;-76
2023/05/18 05:17:20;;;;;;;3.67;1.73;;;;;;;7.25;73.82;102139.88;5040707;28;20302;-75
2023/05/18 05:19:48;;;;;;;3.67;2.10;;;;;;;7.33;72.15;102144.56;5026478;28;20688;-75
2023/05/18 05:22:14;;;;;;;4.90;1.73;;;;;;;7.37;70.07;102146.44;5023473;28;20561;-76
2023/05/18 05:24:41;;;;;;;6.90;2.07;;;;;;;7.44;69.06;102152.19;5026500;28;20215;-76
2023/05/18 05:27:11;;;;;;;6.60;2.23;;;;;;;7.49;68.93;102146.91;5026131;28;20199;-76
2023/05/18 05:29:37;;;;;;;4.47;2.10;;;;;;;7.56;68.66;102146.66;5041630;28;20233;-76
2023/05/18 05:32:04;;;;;;;7.70;2.27;;;;;;;7.63;68.89;102155.03;5021956;28;20295;-76
2023/05/18 05:34:31;;;;;;;7.00;2.23;;;;;;;7.69;68.05;102148.69;5026843;28;20672;-76
2023/05/18 05:37:00;;;;;;;7.63;2.10;;;;;;;7.76;69.43;102160.50;5025922;28;20226;-76
2023/05/18 05:39:27;;;;;;;4.83;1.83;;;;;;;7.82;68.51;102156.81;5023648;28;20470;-75
2023/05/18 05:41:54;;;;;;;5.83;2.00;;;;;;;7.90;68.29;102155.47;5023389;28;20278;-75
2023/05/18 05:44:20;;;;;;;5.97;1.93;;;;;;;7.96;67.33;102159.63;5027809;28;20261;-75
2023/05/18 05:46:48;;;;;;;4.93;2.50;;;;;;;8.04;65.68;102159.09;5023235;28;20670;-76
2023/05/18 05:49:15;;;;;;;5.70;2.17;;;;;;;8.13;65.44;102158.25;5025613;28;20199;-76
2023/05/18 05:51:41;;;;;;;6.73;2.50;;;;;;;8.23;65.40;102163.50;5025491;28;20203;-76
2023/05/18 05:54:09;;;;;;;5.13;1.80;;;;;;;8.34;65.03;102159.75;5043631;28;20265;-76
2023/05/18 05:56:36;;;;;;;6.63;2.07;;;;;;;8.48;65.63;102158.09;5029805;28;20801;-76
2023/05/18 05:59:06;;;;;;;9.87;2.67;;;;;;;8.58;64.25;102151.97;5030192;28;20199;-75
2023/05/18 06:01:33;;;;;;;7.57;2.43;;;;;;;8.68;63.86;102152.69;5023699;28;20618;-75
2023/05/18 06:04:00;;;;;;;6.80;2.43;;;;;;;8.79;63.26;102154.19;5026239;28;20196;-76
2023/05/18 06:06:27;;;;;;;4.60;1.80;;;;;;;8.94;63.99;102161.19;5023924;28;20318;-75
2023/05/18 06:08:54;;;;;;;8.00;2.70;;;;;;;9.05;63.02;102160.03;5031847;28;20676;-76
2023/05/18 06:11:22;;;;;;;5.30;2.53;;;;;;;9.16;62.98;102162.31;5044844;28;21285;-76
2023/05/18 06:13:52;;;;;;;3.30;2.37;;;;;;;9.27;62.52;102160.38;5027645;28;20291;-75
2023/05/18 06:16:18;;;;;;;6.07;2.07;;;;;;;9.38;62.50;102154.72;5023524;28;20551;-76
2023/05/18 06:18:45;;;;;;;5.67;2.20;;;;;;;9.51;62.04;102161.19;5027477;28;20221;-76
2023/05/18 06:21:11;;;;;;;6.63;2.00;;;;;;;9.62;62.12;102158.16;5027695;28;20239;-76
2023/05/18 06:23:38;;;;;;;6.27;2.40;;;;;;;9.74;61.06;102165.69;5029337;28;20286;-76
2023/05/18 06:26:21;;;;;;;5.50;2.13;;;;;;;9.87;60.97;102160.53;5024262;28;20210;-75
2023/05/18 06:29:11;;;;;;;5.30;1.97;;;;;;;9.95;60.83;102162.53;5031062;28;20241;-76
2023/05/18 06:31:57;;;;;;;5.93;2.20;;;;;;;10.06;59.95;102169.31;5044680;28;20211;-76
2023/05/18 06:34:34;;;;;;;5.73;2.17;;;;;;;10.16;59.13;102157.81;5028236;28;20190;-76
2023/05/18 06:37:01;;;;;;;7.60;2.20;;;;;;;10.27;59.33;102172.47;5026088;28;20621;-76
2023/05/18 06:39:27;;;;;;;6.10;2.00;;;;;;;10.34;57.77;102171.03;5025327;28;20262;-75
2023/05/18 06:41:55;;;;;;;5.60;1.80;;;;;;;10.42;59.00;102172.25;5028540;28;20441;-76
2023/05/18 06:44:25;;;;;;;5.30;1.87;;;;;;;10.51;58.38;102171.31;5041401;28;20225;-76
2023/05/18 06:47:20;;;;;;;5.63;2.27;;;;;;;10.62;56.59;102174.59;5025971;28;20216;-76
2023/05/18 06:49:47;;;;;;;7.63;1.90;;;;;;;10.70;57.21;102176.59;5026110;28;20478;-77
2023/05/18 06:52:14;;;;;;;6.83;1.73;;;;;;;10.80;57.59;102179.88;5036996;28;20255;-76
2023/05/18 06:54:42;;;;;;;3.53;1.90;;;;;;;10.88;56.15;102173.91;5028129;28;20221;-76
2023/05/18 06:57:11;;;;;;;4.80;2.00;;;;;;;10.99;57.00;102171.91;5020841;28;20220;-76
2023/05/18 06:59:37;;;;;;;6.70;2.03;;;;;;;11.09;56.61;102179.69;5025445;28;20214;-76
2023/05/18 07:02:05;;;;;;;8.27;1.80;;;;;;;11.18;55.42;102178.72;5039900;28;20210;-77
2023/05/18 07:04:33;;;;;;;11.37;3.80;;;;;;;11.31;56.11;102177.97;5044021;28;20195;-76
2023/05/18 07:06:59;;;;;;;5.20;1.37;;;;;;;11.40;54.51;102178.88;5041427;28;20202;-76
2023/05/18 07:09:25;;;;;;;4.47;1.87;;;;;;;11.48;53.18;102182.69;5043973;28;20282;-76
2023/05/18 07:11:52;;;;;;;9.43;1.37;;;;;;;11.58;53.91;102180.66;5024195;28;20365;-76
2023/05/18 07:14:19;;;;;;;3.67;1.40;;;;;;;11.68;52.80;102183.13;5041182;28;20654;-76
2023/05/18 07:16:46;;;;;;;2.40;1.13;;;;;;;11.74;51.29;102175.91;5044585;28;20214;-76
2023/05/18 07:19:12;;;;;;;3.73;1.00;;;;;;;11.82;51.50;102178.63;5041757;28;20681;-76
2023/05/18 07:21:39;;;;;;;4.53;1.30;;;;;;;11.90;51.07;102177.94;5043420;28;20203;-76
2023/05/18 07:24:05;;;;;;;5.43;1.43;;;;;;;11.98;52.17;102171.16;5040495;28;20214;-76
2023/05/18 07:26:32;;;;;;;5.20;1.43;;;;;;;12.10;51.72;102174.88;5043548;28;20192;-76
2023/05/18 07:28:58;;;;;;;4.50;1.13;;;;;;;12.18;50.22;102176.03;5044402;28;20211;-76
2023/05/18 07:31:26;;;;;;;3.93;1.00;;;;;;;12.26;50.99;102178.78;5040920;28;20227;-76
2023/05/18 07:33:52;;;;;;;5.07;1.50;;;;;;;12.34;50.88;102174.63;5040390;28;20674;-76
2023/05/18 07:36:18;;;;;;;5.03;1.70;;;;;;;12.44;49.77;102185.00;5042132;28;20678;-76
2023/05/18 07:38:45;;;;;;;5.50;1.53;;;;;;;12.49;49.72;102175.09;5027068;28;20223;-76
2023/05/18 07:41:11;;;;;;;2.80;1.13;;;;;;;12.57;49.79;102174.38;5041690;28;20233;-76
2023/05/18 07:43:37;;;;;;;5.37;1.30;;;;;;;12.71;50.18;102184.91;5041935;28;20224;-76
2023/05/18 07:46:04;;;;;;;3.70;1.30;;;;;;;12.81;49.69;102182.81;5036526;28;20274;-76
2023/05/18 07:48:32;;;;;;;2.67;1.27;;;;;;;12.93;47.97;102177.00;5042059;28;20201;-76
2023/05/18 07:50:58;;;;;;;3.20;1.50;;;;;;;12.99;49.25;102183.75;5035190;28;20236;-76
2023/05/18 07:53:24;;;;;;;5.53;1.30;;;;;;;13.04;47.21;102181.00;5039477;28;20220;-76
2023/05/18 07:55:51;;;;;;;4.27;1.20;;;;;;;13.09;47.19;102184.28;5041142;28;20212;-76
2023/05/18 07:58:17;;;;;;;3.40;1.23;;;;;;;13.22;48.13;102180.78;5039399;28;20221;-76
2023/05/18 08:00:44;;;;;;;3.47;1.20;;;;;;;13.40;46.95;102177.13;5022840;28;20628;-76
2023/05/18 08:03:10;;;;;;;2.93;1.33;;;;;;;13.54;49.63;102185.78;5024189;28;20296;-76
2023/05/18 08:05:38;;;;;;;2.87;1.37;;;;;;;13.75;48.43;102176.19;5040901;28;20214;-76
2023/05/18 08:08:05;;;;;;;4.57;1.20;;;;;;;13.87;47.00;102184.31;5038574;28;20636;-76
2023/05/18 08:10:31;;;;;;;6.60;1.30;;;;;;;14.02;47.99;102183.13;5039996;28;20709;-76
2023/05/18 08:12:57;;;;;;;4.03;1.37;;;;;;;14.08;46.60;102171.25;5038641;28;20333;-76
2023/05/18 08:15:24;;;;;;;4.47;1.50;;;;;;;14.13;47.47;102182.50;5039508;28;20542;-76
2023/05/18 08:17:51;;;;;;;6.27;1.70;;;;;;;14.21;46.28;102183.66;5025110;28;20218;-76
2023/05/18 08:20:17;;;;;;;5.63;1.27;;;;;;;14.22;46.00;102179.91;5040909;28;20225;-76
2023/05/18 08:22:45;;;;;;;4.07;1.10;;;;;;;14.25;46.06;102173.97;5023023;28;20210;-76
2023/05/18 08:25:12;;;;;;;8.97;1.60;;;;;;;14.34;46.40;102178.19;5037536;28;20375;-76
2023/05/18 08:27:38;;;;;;;2.00;0.97;;;;;;;14.47;45.16;102171.16;5039469;28;20703;-76
2023/05/18 08:30:05;;;;;;;2.67;1.03;;;;;;;14.64;43.58;102166.63;5024728;28;20281;-76
2023/05/18 08:32:35;;;;;;;4.67;1.20;;;;;;;14.76;44.46;102177.41;5026629;28;20210;-76
2023/05/18 08:35:03;;;;;;;3.43;1.43;;;;;;;14.80;45.96;102174.94;5042185;28;20274;-76
2023/05/18 08:37:30;;;;;;;6.53;1.57;;;;;;;14.82;41.95;102173.50;5039403;28;20215;-76
2023/05/18 08:39:58;;;;;;;6.60;1.30;;;;;;;14.80;44.81;102166.94;5037689;28;20559;-76
2023/05/18 08:42:29;;;;;;;4.90;1.30;;;;;;;14.72;41.87;102171.19;5039362;28;20195;-76
2023/05/18 08:45:03;;;;;;;5.97;1.23;;;;;;;14.74;42.86;102168.97;5040616;28;20684;-76
2023/05/18 08:47:31;;;;;;;4.37;1.40;;;;;;;14.75;45.70;102169.75;5038751;28;20204;-76
2023/05/18 08:50:01;;;;;;;6.10;1.30;;;;;;;14.76;44.35;102166.00;5036661;28;20229;-76
2023/05/18 08:52:34;;;;;;;4.30;1.10;;;;;;;14.78;42.57;102169.13;5034817;28;20207;-76
2023/05/18 08:55:05;;;;;;;4.30;1.13;;;;;;;14.85;42.97;102178.19;5037960;28;20221;-76
2023/05/18 08:57:34;;;;;;;2.40;1.47;;;;;;;14.95;42.98;102174.44;5037430;28;20216;-77
2023/05/18 09:00:02;;;;;;;4.93;1.23;;;;;;;15.15;43.85;102173.75;5034895;28;20231;-76
2023/05/18 09:02:31;;;;;;;4.23;1.30;;;;;;;15.23;40.73;102167.63;5039117;28;20207;-76
2023/05/18 09:04:58;;;;;;;4.63;1.53;;;;;;;15.32;41.17;102165.72;5039340;28;20209;-76
2023/05/18 09:07:26;;;;;;;4.90;1.40;;;;;;;15.40;41.84;102156.94;5039396;28;20292;-76
2023/05/18 09:09:54;;;;;;;6.20;1.30;;;;;;;15.45;44.05;102164.75;5020482;28;20215;-76
2023/05/18 09:12:23;;;;;;;6.50;1.40;;;;;;;15.48;42.58;102167.56;5040967;28;20207;-76
2023/05/18 09:14:50;;;;;;;2.97;1.10;;;;;;;15.49;41.14;102171.81;5035676;28;20205;-76
2023/05/18 09:17:17;;;;;;;1.83;1.10;;;;;;;15.43;41.65;102169.63;5020445;28;20313;-76
2023/05/18 09:19:43;;;;;;;4.87;1.40;;;;;;;15.36;42.38;102172.78;5040952;28;20233;-76
2023/05/18 09:22:10;;;;;;;5.30;1.40;;;;;;;15.29;41.70;102169.00;5040414;28;20218;-76
2023/05/18 09:24:37;;;;;;;4.57;1.43;;;;;;;15.31;43.50;102161.50;5037250;28;20612;-76
2023/05/18 09:27:04;;;;;;;4.07;1.13;;;;;;;15.25;40.62;102176.84;5023611;28;20645;-76
2023/05/18 09:29:32;;;;;;;6.63;1.73;;;;;;;15.24;41.75;102169.97;5041139;28;20381;-76
2023/05/18 09:32:03;;;;;;;2.90;1.40;;;;;;;15.19;43.43;102172.81;5045089;28;20221;-76
2023/05/18 09:34:39;;;;;;;5.93;1.90;;;;;;;15.16;41.23;102170.78;5025633;28;20295;-76
2023/05/18 09:37:06;;;;;;;6.03;2.23;;;;;;;15.13;42.31;102176.75;5041824;28;20201;-76
2023/05/18 09:39:32;;;;;;;7.07;1.60;;;;;;;15.09;43.85;102170.50;5042241;28;20240;-76
2023/05/18 09:41:58;;;;;;;8.60;1.70;;;;;;;15.05;41.46;102164.22;5045534;28;20283;-77
2023/05/18 09:44:35;;;;;;;6.40;1.50;;;;;;;15.04;41.99;102167.19;5040303;28;20212;-76
2023/05/18 09:47:02;;;;;;;3.50;1.43;;;;;;;15.08;42.97;102166.28;5034826;28;20728;-76
2023/05/18 09:49:29;;;;;;;7.73;1.60;;;;;;;15.20;42.41;102163.72;5045303;28;20664;-76
2023/05/18 09:51:58;;;;;;;2.73;1.20;;;;;;;15.36;41.43;102154.16;5042133;28;20278;-76
2023/05/18 09:54:25;;;;;;;4.57;1.30;;;;;;;15.49;42.76;102150.50;5045880;28;20205;-77
2023/05/18 09:56:51;;;;;;;4.63;1.40;;;;;;;15.65;41.05;102159.50;5039550;28;20199;-76
2023/05/18 09:59:18;;;;;;;3.63;1.20;;;;;;;15.78;41.53;102155.81;5040731;28;20226;-76
2023/05/18 10:02:00;;;;;;;3.13;1.30;;;;;;;15.85;39.77;102152.66;5044171;28;20211;-76
2023/05/18 10:04:35;;;;;;;4.43;1.17;;;;;;;15.82;39.03;102148.75;5039188;28;20198;-76
2023/05/18 10:07:02;;;;;;;3.50;1.13;;;;;;;15.82;38.93;102146.09;5040748;28;20641;-76
2023/05/18 10:09:28;;;;;;;3.57;1.40;;;;;;;15.77;38.60;102140.16;5044147;28;20571;-76
2023/05/18 10:11:54;;;;;;;3.33;1.40;;;;;;;15.76;39.09;102133.28;5042685;28;20562;-76
2023/05/18 10:14:23;;;;;;;3.83;1.50;;;;;;;15.77;38.76;102132.97;5041365;28;20246;-77
2023/05/18 10:16:51;;;;;;;3.10;1.30;;;;;;;15.79;38.67;102143.31;5042402;28;20206;-76
2023/05/18 10:19:19;;;;;;;6.10;1.63;;;;;;;15.75;39.28;102132.53;5027096;28;20766;-76
2023/05/18 10:21:46;;;;;;;6.33;1.50;;;;;;;15.58;38.52;102131.81;5045267;28;21148;-77
2023/05/18 10:24:15;;;;;;;3.87;1.93;;;;;;;15.55;39.96;102127.94;5042962;28;20210;-77
2023/05/18 10:26:44;;;;;;;4.50;1.30;;;;;;;15.53;38.89;102122.13;5043255;28;20213;-76
2023/05/18 10:29:11;;;;;;;4.13;1.17;;;;;;;15.59;39.58;102117.41;5041296;28;20611;-76
2023/05/18 10:31:38;;;;;;;1.97;1.20;;;;;;;15.71;39.81;102120.16;5040757;28;20197;-76
2023/05/18 10:34:06;;;;;;;3.47;1.33;;;;;;;15.81;38.20;102109.91;5043944;28;20217;-76
2023/05/18 10:36:36;;;;;;;2.33;1.17;;;;;;;15.96;38.41;102127.22;5023814;28;20698;-76
2023/05/18 10:39:03;;;;;;;6.10;1.77;;;;;;;16.12;39.12;102122.84;5039611;28;20322;-76
2023/05/18 10:41:31;;;;;;;4.33;1.10;;;;;;;16.21;39.17;102123.59;5019600;28;20222;-77
2023/05/18 10:44:02;;;;;;;5.03;1.23;;;;;;;16.32;39.25;102133.53;5043919;28;20198;-76
2023/05/18 10:46:29;;;;;;;7.67;1.60;;;;;;;16.30;39.06;102130.41;5040284;28;20773;-76
2023/05/18 10:48:58;;;;;;;4.17;1.40;;;;;;;16.35;39.91;102132.09;5041162;28;20212;-76
2023/05/18 10:51:25;;;;;;;4.57;1.40;;;;;;;16.33;38.61;102129.75;5038127;28;20237;-76
2023/05/18 10:53:54;;;;;;;3.67;1.40;;;;;;;16.27;38.50;102132.94;5041123;28;20690;-76
2023/05/18 10:56:21;;;;;;;7.07;1.87;;;;;;;16.24;39.89;102128.28;5041464;28;20210;-76
2023/05/18 10:58:48;;;;;;;5.00;1.30;;;;;;;16.26;39.34;102124.16;5042258;28;20633;-76
2023/05/18 11:01:15;;;;;;;5.53;1.60;;;;;;;16.24;38.49;102120.28;5037804;28;20237;-76
2023/05/18 11:03:42;;;;;;;4.30;1.43;;;;;;;16.24;39.64;102109.63;5039791;28;20282;-76
2023/05/18 11:06:10;;;;;;;6.27;1.40;;;;;;;16.22;38.64;102107.28;5041689;28;20226;-76
2023/05/18 11:08:46;;;;;;;7.50;1.60;;;;;;;16.27;38.27;102107.06;5037886;28;20209;-76
2023/05/18 11:11:14;;;;;;;3.20;1.20;;;;;;;16.30;37.89;102106.41;5033955;28;20241;-76
2023/05/18 11:13:44;;;;;;;10.60;1.90;;;;;;;16.29;39.07;102112.06;5037759;28;20213;-76
2023/05/18 11:16:10;;;;;;;6.90;1.50;;;;;;;16.28;38.81;102110.50;5040405;28;20218;-76
2023/05/18 11:18:45;;;;;;;4.77;1.47;;;;;;;16.19;37.23;102105.25;5040002;28;20218;-76
2023/05/18 11:21:28;;;;;;;6.93;1.40;;;;;;;16.21;37.93;102105.72;5042831;28;20221;-77
2023/05/18 11:24:15;;;;;;;5.70;1.60;;;;;;;16.26;38.44;102108.16;5025609;28;20305;-77
2023/05/18 11:26:45;;;;;;;3.60;1.40;;;;;;;16.31;37.91;102096.53;5040297;28;20775;-76
2023/05/18 11:29:19;;;;;;;4.33;1.73;;;;;;;16.35;37.87;102095.53;5039846;28;20218;-76
2023/05/18 11:31:46;;;;;;;5.07;1.60;;;;;;;16.36;38.08;102099.75;5042027;28;20210;-76
2023/05/18 11:34:49;;;;;;;5.17;1.20;;;;;;;16.36;38.00;102099.75;5044524;28;20206;-76
2023/05/18 11:37:17;;;;;;;2.63;1.33;;;;;;;16.38;37.95;102092.22;5041495;28;20207;-77